sensor_id;sensor_type;location;lat;lon;timestamp;P1;durP1;ratioP1;P2;durP2;ratioP2
76138;SDS011;65138;50.946;7.074;2023-01-08T00:01:58;2.65;;;1.65;;
76138;SDS011;65138;50.946;7.074;2023-01-08T00:04:23;2.00;;;1.65;;
76138;SDS011;65138;50.946;7.074;2023-01-08T00:06:49;3.03;;;1.80;;
76138;SDS011;65138;50.946;7.074;2023-01-08T00:09:14;2.10;;;1.90;;
76138;SDS011;65138;50.946;7.074;2023-01-08T00:11:40;2.42;;;1.90;;
76138;SDS011;65138;50.946;7.074;2023-01-08T00:14:06;2.35;;;2.10;;
76138;SDS011;65138;50.946;7.074;2023-01-08T00:16:32;2.47;;;1.67;;
76138;SDS011;65138;50.946;7.074;2023-01-08T00:18:58;2.35;;;1.88;;
76138;SDS011;65138;50.946;7.074;2023-01-08T00:21:23;2.33;;;1.80;;
76138;SDS011;65138;50.946;7.074;2023-01-08T00:23:49;2.53;;;1.98;;
76138;SDS011;65138;50.946;7.074;2023-01-08T00:26:14;1.90;;;0.90;;
76138;SDS011;65138;50.946;7.074;2023-01-08T00:28:40;2.17;;;1.98;;
76138;SDS011;65138;50.946;7.074;2023-01-08T00:31:07;2.60;;;1.75;;
76138;SDS011;65138;50.946;7.074;2023-01-08T00:33:34;2.45;;;1.90;;
76138;SDS011;65138;50.946;7.074;2023-01-08T00:36:05;2.72;;;1.60;;
76138;SDS011;65138;50.946;7.074;2023-01-08T00:38:35;2.20;;;1.95;;
76138;SDS011;65138;50.946;7.074;2023-01-08T00:41:01;2.45;;;2.13;;
76138;SDS011;65138;50.946;7.074;2023-01-08T00:43:29;2.95;;;2.03;;
76138;SDS011;65138;50.946;7.074;2023-01-08T00:45:55;2.47;;;2.15;;
76138;SDS011;65138;50.946;7.074;2023-01-08T00:48:20;2.15;;;1.88;;
76138;SDS011;65138;50.946;7.074;2023-01-08T00:50:47;2.92;;;1.58;;
76138;SDS011;65138;50.946;7.074;2023-01-08T00:53:13;3.03;;;2.05;;
76138;SDS011;65138;50.946;7.074;2023-01-08T00:55:39;2.67;;;1.63;;
76138;SDS011;65138;50.946;7.074;2023-01-08T00:58:05;2.65;;;2.17;;
76138;SDS011;65138;50.946;7.074;2023-01-08T01:00:30;2.38;;;1.27;;
76138;SDS011;65138;50.946;7.074;2023-01-08T01:02:56;2.13;;;1.90;;
76138;SDS011;65138;50.946;7.074;2023-01-08T01:05:22;3.05;;;2.42;;
76138;SDS011;65138;50.946;7.074;2023-01-08T01:07:47;1.80;;;1.30;;
76138;SDS011;65138;50.946;7.074;2023-01-08T01:10:14;2.47;;;2.00;;
76138;SDS011;65138;50.946;7.074;2023-01-08T01:12:40;2.45;;;1.48;;
76138;SDS011;65138;50.946;7.074;2023-01-08T01:15:08;2.50;;;2.05;;
76138;SDS011;65138;50.946;7.074;2023-01-08T01:17:37;2.45;;;1.63;;
76138;SDS011;65138;50.946;7.074;2023-01-08T01:20:04;2.95;;;2.05;;
76138;SDS011;65138;50.946;7.074;2023-01-08T01:22:30;3.00;;;1.83;;
76138;SDS011;65138;50.946;7.074;2023-01-08T01:24:56;3.47;;;2.17;;
76138;SDS011;65138;50.946;7.074;2023-01-08T01:27:24;2.17;;;1.63;;
76138;SDS011;65138;50.946;7.074;2023-01-08T01:29:50;2.10;;;1.60;;
76138;SDS011;65138;50.946;7.074;2023-01-08T01:32:16;2.78;;;1.98;;
76138;SDS011;65138;50.946;7.074;2023-01-08T01:34:41;2.25;;;1.75;;
76138;SDS011;65138;50.946;7.074;2023-01-08T01:37:08;2.47;;;1.90;;
76138;SDS011;65138;50.946;7.074;2023-01-08T01:39:38;2.20;;;1.77;;
76138;SDS011;65138;50.946;7.074;2023-01-08T01:42:04;2.80;;;1.83;;
76138;SDS011;65138;50.946;7.074;2023-01-08T01:47:05;2.30;;;1.92;;
76138;SDS011;65138;50.946;7.074;2023-01-08T01:51:59;2.40;;;1.67;;
76138;SDS011;65138;50.946;7.074;2023-01-08T01:54:28;2.42;;;1.80;;
76138;SDS011;65138;50.946;7.074;2023-01-08T01:56:55;2.60;;;1.65;;
76138;SDS011;65138;50.946;7.074;2023-01-08T01:59:21;2.33;;;1.80;;
76138;SDS011;65138;50.946;7.074;2023-01-08T02:01:47;2.05;;;1.60;;
76138;SDS011;65138;50.946;7.074;2023-01-08T02:04:13;2.03;;;1.83;;
76138;SDS011;65138;50.946;7.074;2023-01-08T02:06:45;2.45;;;1.05;;
76138;SDS011;65138;50.946;7.074;2023-01-08T02:09:29;2.15;;;1.70;;
76138;SDS011;65138;50.946;7.074;2023-01-08T02:12:24;2.63;;;1.90;;
76138;SDS011;65138;50.946;7.074;2023-01-08T02:20:28;1.92;;;1.60;;
76138;SDS011;65138;50.946;7.074;2023-01-08T02:23:04;3.08;;;2.05;;
76138;SDS011;65138;50.946;7.074;2023-01-08T02:25:57;3.20;;;1.83;;
76138;SDS011;65138;50.946;7.074;2023-01-08T02:31:14;2.15;;;1.65;;
76138;SDS011;65138;50.946;7.074;2023-01-08T02:33:41;1.98;;;1.77;;
76138;SDS011;65138;50.946;7.074;2023-01-08T02:38:44;1.35;;;1.17;;
76138;SDS011;65138;50.946;7.074;2023-01-08T02:41:44;1.30;;;1.00;;
76138;SDS011;65138;50.946;7.074;2023-01-08T02:47:20;1.63;;;1.40;;
76138;SDS011;65138;50.946;7.074;2023-01-08T02:52:31;1.80;;;1.15;;
76138;SDS011;65138;50.946;7.074;2023-01-08T02:55:00;1.88;;;0.93;;
76138;SDS011;65138;50.946;7.074;2023-01-08T02:57:28;1.80;;;1.58;;
76138;SDS011;65138;50.946;7.074;2023-01-08T02:59:56;1.48;;;1.35;;
76138;SDS011;65138;50.946;7.074;2023-01-08T03:02:22;2.78;;;1.65;;
76138;SDS011;65138;50.946;7.074;2023-01-08T03:04:53;2.15;;;1.65;;
76138;SDS011;65138;50.946;7.074;2023-01-08T03:07:23;1.92;;;1.48;;
76138;SDS011;65138;50.946;7.074;2023-01-08T03:09:49;4.30;;;1.60;;
76138;SDS011;65138;50.946;7.074;2023-01-08T03:14:55;2.70;;;1.95;;
76138;SDS011;65138;50.946;7.074;2023-01-08T03:17:34;2.80;;;1.95;;
76138;SDS011;65138;50.946;7.074;2023-01-08T03:20:09;4.28;;;1.90;;
76138;SDS011;65138;50.946;7.074;2023-01-08T03:22:39;2.40;;;1.77;;
76138;SDS011;65138;50.946;7.074;2023-01-08T03:25:08;2.30;;;1.50;;
76138;SDS011;65138;50.946;7.074;2023-01-08T03:27:36;2.33;;;1.80;;
76138;SDS011;65138;50.946;7.074;2023-01-08T03:30:06;2.75;;;1.52;;
76138;SDS011;65138;50.946;7.074;2023-01-08T03:32:34;2.08;;;1.80;;
76138;SDS011;65138;50.946;7.074;2023-01-08T03:35:02;2.10;;;1.83;;
76138;SDS011;65138;50.946;7.074;2023-01-08T03:37:32;2.75;;;1.63;;
76138;SDS011;65138;50.946;7.074;2023-01-08T03:40:04;2.00;;;1.70;;
76138;SDS011;65138;50.946;7.074;2023-01-08T03:42:36;1.83;;;1.35;;
76138;SDS011;65138;50.946;7.074;2023-01-08T03:45:02;1.98;;;1.77;;
76138;SDS011;65138;50.946;7.074;2023-01-08T03:47:28;2.40;;;1.77;;
76138;SDS011;65138;50.946;7.074;2023-01-08T03:49:59;2.47;;;1.77;;
76138;SDS011;65138;50.946;7.074;2023-01-08T03:52:27;1.98;;;1.40;;
76138;SDS011;65138;50.946;7.074;2023-01-08T03:54:54;1.50;;;1.40;;
76138;SDS011;65138;50.946;7.074;2023-01-08T03:57:20;2.28;;;1.48;;
76138;SDS011;65138;50.946;7.074;2023-01-08T03:59:46;3.25;;;1.40;;
76138;SDS011;65138;50.946;7.074;2023-01-08T04:02:11;1.77;;;1.48;;
76138;SDS011;65138;50.946;7.074;2023-01-08T04:04:37;2.15;;;1.75;;
76138;SDS011;65138;50.946;7.074;2023-01-08T04:07:03;1.65;;;1.27;;
76138;SDS011;65138;50.946;7.074;2023-01-08T04:09:28;2.25;;;1.52;;
76138;SDS011;65138;50.946;7.074;2023-01-08T04:11:54;2.08;;;1.50;;
76138;SDS011;65138;50.946;7.074;2023-01-08T04:14:19;2.40;;;1.83;;
76138;SDS011;65138;50.946;7.074;2023-01-08T04:16:45;1.55;;;0.73;;
76138;SDS011;65138;50.946;7.074;2023-01-08T04:19:11;1.77;;;1.55;;
76138;SDS011;65138;50.946;7.074;2023-01-08T04:21:37;1.60;;;1.13;;
76138;SDS011;65138;50.946;7.074;2023-01-08T04:24:03;2.75;;;1.50;;
76138;SDS011;65138;50.946;7.074;2023-01-08T04:26:30;1.88;;;1.63;;
76138;SDS011;65138;50.946;7.074;2023-01-08T04:28:55;1.73;;;1.48;;
76138;SDS011;65138;50.946;7.074;2023-01-08T04:31:21;2.03;;;1.42;;
76138;SDS011;65138;50.946;7.074;2023-01-08T04:33:47;1.42;;;1.30;;
76138;SDS011;65138;50.946;7.074;2023-01-08T04:36:13;1.77;;;1.25;;
76138;SDS011;65138;50.946;7.074;2023-01-08T04:38:38;1.65;;;1.42;;
76138;SDS011;65138;50.946;7.074;2023-01-08T04:41:04;1.35;;;0.70;;
76138;SDS011;65138;50.946;7.074;2023-01-08T04:43:30;1.73;;;1.25;;
76138;SDS011;65138;50.946;7.074;2023-01-08T04:46:00;1.60;;;1.38;;
76138;SDS011;65138;50.946;7.074;2023-01-08T04:48:27;1.73;;;1.42;;
76138;SDS011;65138;50.946;7.074;2023-01-08T04:50:56;1.88;;;1.30;;
76138;SDS011;65138;50.946;7.074;2023-01-08T04:53:22;1.95;;;1.67;;
76138;SDS011;65138;50.946;7.074;2023-01-08T04:55:48;1.52;;;1.30;;
76138;SDS011;65138;50.946;7.074;2023-01-08T04:58:13;1.42;;;0.77;;
76138;SDS011;65138;50.946;7.074;2023-01-08T05:00:39;1.42;;;1.25;;
76138;SDS011;65138;50.946;7.074;2023-01-08T05:03:05;1.50;;;1.17;;
76138;SDS011;65138;50.946;7.074;2023-01-08T05:05:31;2.15;;;1.15;;
76138;SDS011;65138;50.946;7.074;2023-01-08T05:07:58;2.17;;;1.40;;
76138;SDS011;65138;50.946;7.074;2023-01-08T05:10:24;1.35;;;1.08;;
76138;SDS011;65138;50.946;7.074;2023-01-08T05:12:49;1.88;;;1.60;;
76138;SDS011;65138;50.946;7.074;2023-01-08T05:15:15;1.80;;;1.38;;
76138;SDS011;65138;50.946;7.074;2023-01-08T05:17:41;1.40;;;1.15;;
76138;SDS011;65138;50.946;7.074;2023-01-08T05:20:06;1.30;;;0.80;;
76138;SDS011;65138;50.946;7.074;2023-01-08T05:22:33;2.78;;;0.63;;
76138;SDS011;65138;50.946;7.074;2023-01-08T05:24:59;1.08;;;0.90;;
76138;SDS011;65138;50.946;7.074;2023-01-08T05:27:26;0.98;;;0.65;;
76138;SDS011;65138;50.946;7.074;2023-01-08T05:29:53;1.27;;;1.17;;
76138;SDS011;65138;50.946;7.074;2023-01-08T05:32:18;1.20;;;0.88;;
76138;SDS011;65138;50.946;7.074;2023-01-08T05:34:44;1.40;;;1.15;;
76138;SDS011;65138;50.946;7.074;2023-01-08T05:37:10;0.73;;;0.20;;
76138;SDS011;65138;50.946;7.074;2023-01-08T05:39:36;1.42;;;1.15;;
76138;SDS011;65138;50.946;7.074;2023-01-08T05:42:02;1.30;;;0.98;;
76138;SDS011;65138;50.946;7.074;2023-01-08T05:44:28;1.40;;;0.98;;
76138;SDS011;65138;50.946;7.074;2023-01-08T05:46:53;1.05;;;0.65;;
76138;SDS011;65138;50.946;7.074;2023-01-08T05:49:19;1.30;;;1.17;;
76138;SDS011;65138;50.946;7.074;2023-01-08T05:51:48;1.20;;;1.02;;
76138;SDS011;65138;50.946;7.074;2023-01-08T05:54:14;0.90;;;0.73;;
76138;SDS011;65138;50.946;7.074;2023-01-08T05:56:40;2.75;;;1.25;;
76138;SDS011;65138;50.946;7.074;2023-01-08T05:59:09;1.00;;;0.90;;
76138;SDS011;65138;50.946;7.074;2023-01-08T06:01:35;1.20;;;0.68;;
76138;SDS011;65138;50.946;7.074;2023-01-08T06:04:02;0.70;;;0.22;;
76138;SDS011;65138;50.946;7.074;2023-01-08T06:06:28;1.13;;;1.02;;
76138;SDS011;65138;50.946;7.074;2023-01-08T06:08:53;0.88;;;0.50;;
76138;SDS011;65138;50.946;7.074;2023-01-08T06:11:19;0.82;;;0.35;;
76138;SDS011;65138;50.946;7.074;2023-01-08T06:13:44;1.10;;;0.90;;
76138;SDS011;65138;50.946;7.074;2023-01-08T06:16:10;1.23;;;1.10;;
76138;SDS011;65138;50.946;7.074;2023-01-08T06:18:36;0.77;;;0.73;;
76138;SDS011;65138;50.946;7.074;2023-01-08T06:21:02;0.85;;;0.63;;
76138;SDS011;65138;50.946;7.074;2023-01-08T06:23:29;0.60;;;0.60;;
76138;SDS011;65138;50.946;7.074;2023-01-08T06:25:56;0.85;;;0.70;;
76138;SDS011;65138;50.946;7.074;2023-01-08T06:28:23;1.20;;;0.75;;
76138;SDS011;65138;50.946;7.074;2023-01-08T06:30:49;1.13;;;0.30;;
76138;SDS011;65138;50.946;7.074;2023-01-08T06:33:15;0.82;;;0.82;;
76138;SDS011;65138;50.946;7.074;2023-01-08T06:35:41;1.00;;;0.90;;
76138;SDS011;65138;50.946;7.074;2023-01-08T06:38:06;0.50;;;0.50;;
76138;SDS011;65138;50.946;7.074;2023-01-08T06:40:32;1.10;;;0.60;;
76138;SDS011;65138;50.946;7.074;2023-01-08T06:43:01;0.90;;;0.55;;
76138;SDS011;65138;50.946;7.074;2023-01-08T06:45:27;1.02;;;0.52;;
76138;SDS011;65138;50.946;7.074;2023-01-08T06:47:53;0.98;;;0.80;;
76138;SDS011;65138;50.946;7.074;2023-01-08T06:50:19;0.85;;;0.50;;
76138;SDS011;65138;50.946;7.074;2023-01-08T06:52:50;0.85;;;0.75;;
76138;SDS011;65138;50.946;7.074;2023-01-08T06:55:20;0.60;;;0.60;;
76138;SDS011;65138;50.946;7.074;2023-01-08T06:57:47;0.80;;;0.80;;
76138;SDS011;65138;50.946;7.074;2023-01-08T07:00:13;0.80;;;0.80;;
76138;SDS011;65138;50.946;7.074;2023-01-08T07:02:39;1.30;;;0.85;;
76138;SDS011;65138;50.946;7.074;2023-01-08T07:05:04;0.35;;;0.10;;
76138;SDS011;65138;50.946;7.074;2023-01-08T07:07:30;0.60;;;0.50;;
76138;SDS011;65138;50.946;7.074;2023-01-08T07:09:56;0.35;;;0.25;;
76138;SDS011;65138;50.946;7.074;2023-01-08T07:12:22;0.80;;;0.60;;
76138;SDS011;65138;50.946;7.074;2023-01-08T07:14:48;0.68;;;0.68;;
76138;SDS011;65138;50.946;7.074;2023-01-08T07:17:14;0.45;;;0.43;;
76138;SDS011;65138;50.946;7.074;2023-01-08T07:19:39;0.80;;;0.80;;
76138;SDS011;65138;50.946;7.074;2023-01-08T07:22:05;0.80;;;0.50;;
76138;SDS011;65138;50.946;7.074;2023-01-08T07:24:30;0.40;;;0.40;;
76138;SDS011;65138;50.946;7.074;2023-01-08T07:26:56;4.95;;;0.60;;
76138;SDS011;65138;50.946;7.074;2023-01-08T07:29:22;0.70;;;0.30;;
76138;SDS011;65138;50.946;7.074;2023-01-08T07:31:47;0.43;;;0.43;;
76138;SDS011;65138;50.946;7.074;2023-01-08T07:34:13;0.22;;;0.10;;
76138;SDS011;65138;50.946;7.074;2023-01-08T07:36:38;0.95;;;0.57;;
76138;SDS011;65138;50.946;7.074;2023-01-08T07:39:04;0.50;;;0.50;;
76138;SDS011;65138;50.946;7.074;2023-01-08T07:41:29;0.82;;;0.43;;
76138;SDS011;65138;50.946;7.074;2023-01-08T07:43:55;5.05;;;0.60;;
76138;SDS011;65138;50.946;7.074;2023-01-08T07:46:21;0.82;;;0.50;;
76138;SDS011;65138;50.946;7.074;2023-01-08T07:48:47;0.63;;;0.10;;
76138;SDS011;65138;50.946;7.074;2023-01-08T07:51:12;0.90;;;0.45;;
76138;SDS011;65138;50.946;7.074;2023-01-08T07:53:38;2.80;;;0.47;;
76138;SDS011;65138;50.946;7.074;2023-01-08T07:56:04;1.30;;;0.43;;
76138;SDS011;65138;50.946;7.074;2023-01-08T07:58:32;1.25;;;0.50;;
76138;SDS011;65138;50.946;7.074;2023-01-08T08:00:58;3.33;;;0.10;;
76138;SDS011;65138;50.946;7.074;2023-01-08T08:03:24;1.73;;;0.38;;
76138;SDS011;65138;50.946;7.074;2023-01-08T08:05:50;2.65;;;0.63;;
76138;SDS011;65138;50.946;7.074;2023-01-08T08:08:16;0.30;;;0.30;;
76138;SDS011;65138;50.946;7.074;2023-01-08T08:10:41;0.52;;;0.35;;
76138;SDS011;65138;50.946;7.074;2023-01-08T08:13:08;0.88;;;0.40;;
76138;SDS011;65138;50.946;7.074;2023-01-08T08:15:34;0.80;;;0.60;;
76138;SDS011;65138;50.946;7.074;2023-01-08T08:18:01;3.85;;;0.90;;
76138;SDS011;65138;50.946;7.074;2023-01-08T08:20:26;1.50;;;0.90;;
76138;SDS011;65138;50.946;7.074;2023-01-08T08:22:58;1.92;;;0.60;;
76138;SDS011;65138;50.946;7.074;2023-01-08T08:25:28;1.95;;;0.50;;
76138;SDS011;65138;50.946;7.074;2023-01-08T08:27:55;2.28;;;0.40;;
76138;SDS011;65138;50.946;7.074;2023-01-08T08:30:22;2.42;;;0.55;;
76138;SDS011;65138;50.946;7.074;2023-01-08T08:32:48;1.58;;;0.30;;
76138;SDS011;65138;50.946;7.074;2023-01-08T08:35:14;2.28;;;0.32;;
76138;SDS011;65138;50.946;7.074;2023-01-08T08:37:39;2.22;;;0.40;;
76138;SDS011;65138;50.946;7.074;2023-01-08T08:40:05;0.73;;;0.47;;
76138;SDS011;65138;50.946;7.074;2023-01-08T08:42:32;3.20;;;0.52;;
76138;SDS011;65138;50.946;7.074;2023-01-08T08:44:57;0.60;;;0.32;;
76138;SDS011;65138;50.946;7.074;2023-01-08T08:47:23;1.05;;;0.70;;
76138;SDS011;65138;50.946;7.074;2023-01-08T08:49:48;1.35;;;0.60;;
76138;SDS011;65138;50.946;7.074;2023-01-08T08:52:14;1.83;;;0.30;;
76138;SDS011;65138;50.946;7.074;2023-01-08T08:54:39;0.80;;;0.50;;
76138;SDS011;65138;50.946;7.074;2023-01-08T08:57:06;0.47;;;0.10;;
76138;SDS011;65138;50.946;7.074;2023-01-08T08:59:33;0.85;;;0.50;;
76138;SDS011;65138;50.946;7.074;2023-01-08T09:01:59;0.30;;;0.30;;
76138;SDS011;65138;50.946;7.074;2023-01-08T09:04:24;0.70;;;0.25;;
76138;SDS011;65138;50.946;7.074;2023-01-08T09:06:50;1.08;;;0.20;;
76138;SDS011;65138;50.946;7.074;2023-01-08T09:09:16;0.93;;;0.45;;
76138;SDS011;65138;50.946;7.074;2023-01-08T09:11:42;0.80;;;0.60;;
76138;SDS011;65138;50.946;7.074;2023-01-08T09:14:08;0.65;;;0.50;;
76138;SDS011;65138;50.946;7.074;2023-01-08T09:16:34;0.47;;;0.30;;
76138;SDS011;65138;50.946;7.074;2023-01-08T09:19:01;0.75;;;0.47;;
76138;SDS011;65138;50.946;7.074;2023-01-08T09:21:26;1.13;;;0.65;;
76138;SDS011;65138;50.946;7.074;2023-01-08T09:23:52;0.70;;;0.30;;
76138;SDS011;65138;50.946;7.074;2023-01-08T09:26:18;1.13;;;0.45;;
76138;SDS011;65138;50.946;7.074;2023-01-08T09:28:43;2.15;;;0.63;;
76138;SDS011;65138;50.946;7.074;2023-01-08T09:31:09;2.10;;;0.63;;
76138;SDS011;65138;50.946;7.074;2023-01-08T09:33:34;1.15;;;0.55;;
76138;SDS011;65138;50.946;7.074;2023-01-08T09:36:00;0.88;;;0.50;;
76138;SDS011;65138;50.946;7.074;2023-01-08T09:38:25;1.23;;;0.77;;
76138;SDS011;65138;50.946;7.074;2023-01-08T09:40:55;0.82;;;0.65;;
76138;SDS011;65138;50.946;7.074;2023-01-08T09:43:26;1.35;;;0.40;;
76138;SDS011;65138;50.946;7.074;2023-01-08T09:45:54;1.55;;;0.60;;
76138;SDS011;65138;50.946;7.074;2023-01-08T09:48:23;0.50;;;0.35;;
76138;SDS011;65138;50.946;7.074;2023-01-08T09:50:52;2.45;;;0.52;;
76138;SDS011;65138;50.946;7.074;2023-01-08T09:53:18;2.30;;;0.30;;
76138;SDS011;65138;50.946;7.074;2023-01-08T09:55:45;1.73;;;0.90;;
76138;SDS011;65138;50.946;7.074;2023-01-08T10:00:52;2.25;;;0.73;;
76138;SDS011;65138;50.946;7.074;2023-01-08T10:03:18;1.63;;;0.73;;
76138;SDS011;65138;50.946;7.074;2023-01-08T10:05:46;1.95;;;0.90;;
76138;SDS011;65138;50.946;7.074;2023-01-08T10:08:12;1.55;;;0.55;;
76138;SDS011;65138;50.946;7.074;2023-01-08T10:10:38;1.40;;;0.73;;
76138;SDS011;65138;50.946;7.074;2023-01-08T10:13:05;1.15;;;0.40;;
76138;SDS011;65138;50.946;7.074;2023-01-08T10:15:33;2.17;;;0.57;;
76138;SDS011;65138;50.946;7.074;2023-01-08T10:18:00;0.77;;;0.35;;
76138;SDS011;65138;50.946;7.074;2023-01-08T10:20:37;0.90;;;0.43;;
76138;SDS011;65138;50.946;7.074;2023-01-08T10:23:13;2.53;;;0.60;;
76138;SDS011;65138;50.946;7.074;2023-01-08T10:28:18;2.30;;;0.75;;
76138;SDS011;65138;50.946;7.074;2023-01-08T10:30:45;1.55;;;0.52;;
76138;SDS011;65138;50.946;7.074;2023-01-08T10:33:24;2.25;;;0.90;;
76138;SDS011;65138;50.946;7.074;2023-01-08T10:35:59;2.50;;;0.63;;
76138;SDS011;65138;50.946;7.074;2023-01-08T10:38:29;1.38;;;0.80;;
76138;SDS011;65138;50.946;7.074;2023-01-08T10:40:57;4.20;;;0.70;;
76138;SDS011;65138;50.946;7.074;2023-01-08T10:43:26;1.15;;;0.60;;
76138;SDS011;65138;50.946;7.074;2023-01-08T10:46:05;0.88;;;0.55;;
76138;SDS011;65138;50.946;7.074;2023-01-08T10:48:37;0.68;;;0.63;;
76138;SDS011;65138;50.946;7.074;2023-01-08T10:53:39;1.10;;;0.85;;
76138;SDS011;65138;50.946;7.074;2023-01-08T10:56:05;4.35;;;0.80;;
76138;SDS011;65138;50.946;7.074;2023-01-08T10:58:42;2.53;;;0.90;;
76138;SDS011;65138;50.946;7.074;2023-01-08T11:01:11;3.10;;;0.70;;
76138;SDS011;65138;50.946;7.074;2023-01-08T11:03:53;7.57;;;0.70;;
76138;SDS011;65138;50.946;7.074;2023-01-08T11:06:22;2.92;;;0.82;;
76138;SDS011;65138;50.946;7.074;2023-01-08T11:11:49;3.13;;;0.75;;
76138;SDS011;65138;50.946;7.074;2023-01-08T11:16:59;3.35;;;0.55;;
76138;SDS011;65138;50.946;7.074;2023-01-08T11:19:30;2.53;;;0.80;;
76138;SDS011;65138;50.946;7.074;2023-01-08T11:24:23;0.65;;;0.30;;
76138;SDS011;65138;50.946;7.074;2023-01-08T11:38:01;0.77;;;0.55;;
76138;SDS011;65138;50.946;7.074;2023-01-08T11:40:36;1.65;;;0.20;;
76138;SDS011;65138;50.946;7.074;2023-01-08T11:43:20;1.85;;;0.73;;
76138;SDS011;65138;50.946;7.074;2023-01-08T11:52:06;1.35;;;0.60;;
76138;SDS011;65138;50.946;7.074;2023-01-08T11:55:08;0.77;;;0.40;;
76138;SDS011;65138;50.946;7.074;2023-01-08T11:57:51;1.13;;;0.68;;
76138;SDS011;65138;50.946;7.074;2023-01-08T12:03:24;1.30;;;0.60;;
76138;SDS011;65138;50.946;7.074;2023-01-08T12:08:50;0.98;;;0.70;;
76138;SDS011;65138;50.946;7.074;2023-01-08T12:11:31;2.53;;;0.95;;
76138;SDS011;65138;50.946;7.074;2023-01-08T12:14:12;2.25;;;0.93;;
76138;SDS011;65138;50.946;7.074;2023-01-08T12:22:35;1.83;;;0.73;;
76138;SDS011;65138;50.946;7.074;2023-01-08T12:27:41;2.08;;;1.25;;
76138;SDS011;65138;50.946;7.074;2023-01-08T12:33:04;0.98;;;0.43;;
76138;SDS011;65138;50.946;7.074;2023-01-08T12:35:38;0.90;;;0.10;;
76138;SDS011;65138;50.946;7.074;2023-01-08T12:40:34;3.30;;;0.70;;
76138;SDS011;65138;50.946;7.074;2023-01-08T12:43:06;2.00;;;0.35;;
76138;SDS011;65138;50.946;7.074;2023-01-08T12:45:39;0.73;;;0.40;;
76138;SDS011;65138;50.946;7.074;2023-01-08T13:03:59;0.93;;;0.60;;
76138;SDS011;65138;50.946;7.074;2023-01-08T13:06:28;2.13;;;0.93;;
76138;SDS011;65138;50.946;7.074;2023-01-08T13:08:54;0.60;;;0.47;;
76138;SDS011;65138;50.946;7.074;2023-01-08T13:11:32;0.75;;;0.43;;
76138;SDS011;65138;50.946;7.074;2023-01-08T13:14:05;0.60;;;0.35;;
76138;SDS011;65138;50.946;7.074;2023-01-08T13:16:36;0.32;;;0.10;;
76138;SDS011;65138;50.946;7.074;2023-01-08T13:19:03;1.25;;;0.30;;
76138;SDS011;65138;50.946;7.074;2023-01-08T13:24:20;0.50;;;0.50;;
76138;SDS011;65138;50.946;7.074;2023-01-08T13:29:39;0.38;;;0.38;;
76138;SDS011;65138;50.946;7.074;2023-01-08T13:32:21;0.88;;;0.30;;
76138;SDS011;65138;50.946;7.074;2023-01-08T13:35:13;0.55;;;0.55;;
76138;SDS011;65138;50.946;7.074;2023-01-08T13:38:29;0.60;;;0.50;;
76138;SDS011;65138;50.946;7.074;2023-01-08T13:43:20;0.70;;;0.50;;
76138;SDS011;65138;50.946;7.074;2023-01-08T13:46:15;1.10;;;0.30;;
76138;SDS011;65138;50.946;7.074;2023-01-08T13:48:51;0.88;;;0.30;;
76138;SDS011;65138;50.946;7.074;2023-01-08T13:51:31;1.17;;;0.32;;
76138;SDS011;65138;50.946;7.074;2023-01-08T13:56:36;0.40;;;0.10;;
76138;SDS011;65138;50.946;7.074;2023-01-08T13:59:02;0.68;;;0.40;;
76138;SDS011;65138;50.946;7.074;2023-01-08T14:01:29;0.68;;;0.52;;
76138;SDS011;65138;50.946;7.074;2023-01-08T14:03:55;0.55;;;0.52;;
76138;SDS011;65138;50.946;7.074;2023-01-08T14:06:23;0.73;;;0.40;;
76138;SDS011;65138;50.946;7.074;2023-01-08T14:08:54;0.28;;;0.28;;
76138;SDS011;65138;50.946;7.074;2023-01-08T14:11:26;0.50;;;0.35;;
76138;SDS011;65138;50.946;7.074;2023-01-08T14:13:55;1.60;;;0.52;;
76138;SDS011;65138;50.946;7.074;2023-01-08T14:16:21;0.98;;;0.50;;
76138;SDS011;65138;50.946;7.074;2023-01-08T14:18:47;0.68;;;0.50;;
76138;SDS011;65138;50.946;7.074;2023-01-08T14:21:14;0.45;;;0.10;;
76138;SDS011;65138;50.946;7.074;2023-01-08T14:23:46;0.60;;;0.40;;
76138;SDS011;65138;50.946;7.074;2023-01-08T14:26:22;0.60;;;0.10;;
76138;SDS011;65138;50.946;7.074;2023-01-08T14:33:45;0.88;;;0.77;;
76138;SDS011;65138;50.946;7.074;2023-01-08T14:36:12;1.30;;;0.50;;
76138;SDS011;65138;50.946;7.074;2023-01-08T14:38:39;0.45;;;0.43;;
76138;SDS011;65138;50.946;7.074;2023-01-08T14:41:08;0.22;;;0.03;;
76138;SDS011;65138;50.946;7.074;2023-01-08T14:43:41;1.10;;;0.30;;
76138;SDS011;65138;50.946;7.074;2023-01-08T14:46:27;0.40;;;0.20;;
76138;SDS011;65138;50.946;7.074;2023-01-08T14:48:53;0.60;;;0.32;;
76138;SDS011;65138;50.946;7.074;2023-01-08T14:51:21;0.40;;;0.40;;
76138;SDS011;65138;50.946;7.074;2023-01-08T14:53:53;0.43;;;0.35;;
76138;SDS011;65138;50.946;7.074;2023-01-08T14:58:53;0.85;;;0.47;;
76138;SDS011;65138;50.946;7.074;2023-01-08T15:01:23;0.52;;;0.40;;
76138;SDS011;65138;50.946;7.074;2023-01-08T15:06:43;0.77;;;0.55;;
76138;SDS011;65138;50.946;7.074;2023-01-08T15:12:21;1.05;;;0.40;;
76138;SDS011;65138;50.946;7.074;2023-01-08T15:14:50;0.77;;;0.43;;
76138;SDS011;65138;50.946;7.074;2023-01-08T15:17:19;0.98;;;0.52;;
76138;SDS011;65138;50.946;7.074;2023-01-08T15:19:48;1.17;;;0.10;;
76138;SDS011;65138;50.946;7.074;2023-01-08T15:22:18;1.52;;;0.22;;
76138;SDS011;65138;50.946;7.074;2023-01-08T15:24:59;1.67;;;0.52;;
76138;SDS011;65138;50.946;7.074;2023-01-08T15:27:29;2.15;;;0.45;;
76138;SDS011;65138;50.946;7.074;2023-01-08T15:29:55;0.77;;;0.30;;
76138;SDS011;65138;50.946;7.074;2023-01-08T15:32:31;0.60;;;0.40;;
76138;SDS011;65138;50.946;7.074;2023-01-08T15:34:59;1.55;;;0.60;;
76138;SDS011;65138;50.946;7.074;2023-01-08T15:37:25;0.80;;;0.32;;
76138;SDS011;65138;50.946;7.074;2023-01-08T15:39:51;0.50;;;0.38;;
76138;SDS011;65138;50.946;7.074;2023-01-08T15:42:20;0.93;;;0.30;;
76138;SDS011;65138;50.946;7.074;2023-01-08T15:45:09;2.05;;;0.40;;
76138;SDS011;65138;50.946;7.074;2023-01-08T15:47:40;0.55;;;0.40;;
76138;SDS011;65138;50.946;7.074;2023-01-08T15:50:05;1.02;;;0.52;;
76138;SDS011;65138;50.946;7.074;2023-01-08T15:52:31;2.03;;;0.52;;
76138;SDS011;65138;50.946;7.074;2023-01-08T15:54:58;0.70;;;0.40;;
76138;SDS011;65138;50.946;7.074;2023-01-08T15:57:25;0.68;;;0.60;;
76138;SDS011;65138;50.946;7.074;2023-01-08T15:59:51;0.77;;;0.43;;
76138;SDS011;65138;50.946;7.074;2023-01-08T16:02:17;0.30;;;0.20;;
76138;SDS011;65138;50.946;7.074;2023-01-08T16:04:43;0.60;;;0.50;;
76138;SDS011;65138;50.946;7.074;2023-01-08T16:07:08;0.77;;;0.43;;
76138;SDS011;65138;50.946;7.074;2023-01-08T16:09:34;0.95;;;0.40;;
76138;SDS011;65138;50.946;7.074;2023-01-08T16:11:59;0.60;;;0.20;;
76138;SDS011;65138;50.946;7.074;2023-01-08T16:14:25;1.35;;;0.57;;
76138;SDS011;65138;50.946;7.074;2023-01-08T16:16:51;0.52;;;0.43;;
76138;SDS011;65138;50.946;7.074;2023-01-08T16:19:17;1.42;;;0.52;;
76138;SDS011;65138;50.946;7.074;2023-01-08T16:21:45;1.00;;;0.32;;
76138;SDS011;65138;50.946;7.074;2023-01-08T16:24:14;2.42;;;0.75;;
76138;SDS011;65138;50.946;7.074;2023-01-08T16:26:39;1.05;;;0.43;;
76138;SDS011;65138;50.946;7.074;2023-01-08T16:29:08;6.43;;;2.97;;
76138;SDS011;65138;50.946;7.074;2023-01-08T16:31:33;5.68;;;3.33;;
76138;SDS011;65138;50.946;7.074;2023-01-08T16:34:02;3.47;;;1.65;;
76138;SDS011;65138;50.946;7.074;2023-01-08T16:36:28;1.38;;;0.73;;
76138;SDS011;65138;50.946;7.074;2023-01-08T16:38:54;1.10;;;0.63;;
76138;SDS011;65138;50.946;7.074;2023-01-08T16:41:20;1.67;;;0.77;;
76138;SDS011;65138;50.946;7.074;2023-01-08T16:43:46;0.50;;;0.45;;
76138;SDS011;65138;50.946;7.074;2023-01-08T16:46:12;1.30;;;0.63;;
76138;SDS011;65138;50.946;7.074;2023-01-08T16:48:39;1.50;;;0.63;;
76138;SDS011;65138;50.946;7.074;2023-01-08T16:51:06;1.63;;;0.70;;
76138;SDS011;65138;50.946;7.074;2023-01-08T16:53:31;1.15;;;0.60;;